Time;durP1;ratioP1;P1;durP2;ratioP2;P2;SDS_P1;SDS_P2;PMS_P1;PMS_P2;Temp;Humidity;BMP_temperature;BMP_pressure;BME280_temperature;BME280_humidity;BME280_pressure;Samples;Min_cycle;Max_cycle;Signal;HPM_P1;HPM_P2
2023/02/01 00:00:11;;;;;;;18.27;9.20;;;77.70;2227.20;;;;;;5076677;28;20025;-82
2023/02/01 00:02:40;;;;;;;26.55;12.68;;;102.50;2227.20;;;;;;5076346;28;20029;-81
2023/02/01 00:05:08;;;;;;;18.30;10.80;;;102.50;2227.20;;;;;;5076134;28;20024;-84
2023/02/01 00:07:35;;;;;;;20.50;10.38;;;102.50;2227.20;;;;;;5076199;28;20119;-81
2023/02/01 00:10:00;;;;;;;14.07;7.60;;;102.40;2227.20;;;;;;5076192;28;20042;-83
2023/02/01 00:12:26;;;;;;;11.77;6.82;;;102.50;2227.20;;;;;;5076145;28;20132;-84
2023/02/01 00:14:52;;;;;;;14.77;8.07;;;102.50;2227.20;;;;;;5077646;28;20020;-85
2023/02/01 00:17:17;;;;;;;10.85;5.82;;;102.50;2227.20;;;;;;5076295;28;20464;-82
2023/02/01 00:19:43;;;;;;;14.85;6.80;;;102.50;2227.20;;;;;;5076809;28;20027;-83
2023/02/01 00:22:09;;;;;;;14.57;8.07;;;102.50;2227.20;;;;;;5075576;28;20452;-81
2023/02/01 00:24:34;;;;;;;15.82;8.30;;;102.50;2227.20;;;;;;5074288;28;20025;-77
2023/02/01 00:27:00;;;;;;;17.33;8.88;;;102.50;2227.20;;;;;;5075317;28;20480;-76
2023/02/01 00:29:26;;;;;;;16.50;7.85;;;102.60;2227.20;;;;;;5074297;28;20031;-79
2023/02/01 00:31:52;;;;;;;15.73;8.27;;;102.50;2227.20;;;;;;5074049;28;20029;-79
2023/02/01 00:34:18;;;;;;;20.35;8.48;;;102.60;2227.20;;;;;;5081358;28;20027;-82
2023/02/01 00:36:44;;;;;;;20.45;9.02;;;102.60;2227.20;;;;;;5095024;28;20038;-85
2023/02/01 00:39:10;;;;;;;20.02;8.23;;;102.60;2227.20;;;;;;5095119;28;20028;-84
2023/02/01 00:41:36;;;;;;;13.20;7.20;;;102.60;2227.20;;;;;;5095071;28;20028;-84
2023/02/01 00:44:02;;;;;;;10.98;6.22;;;102.60;2227.20;;;;;;5094590;28;20066;-81
2023/02/01 00:46:29;;;;;;;12.02;6.03;;;102.80;2227.20;;;;;;5094716;28;20082;-81
2023/02/01 00:48:55;;;;;;;14.55;7.72;;;102.70;2227.20;;;;;;5095186;28;20045;-81
2023/02/01 00:51:27;;;;;;;14.02;8.18;;;102.60;2227.20;;;;;;5094371;28;20055;-83
2023/02/01 00:53:53;;;;;;;;;;;102.60;2227.20;;;;;;5095202;28;20360;-83
2023/02/01 00:56:19;;;;;;;9.52;5.60;;;102.60;2227.20;;;;;;5094497;28;19919;-83
2023/02/01 00:58:45;;;;;;;12.07;5.97;;;102.70;2227.20;;;;;;5095619;28;20052;-83
2023/02/01 01:01:17;;;;;;;14.85;5.95;;;102.60;2227.20;;;;;;5094323;28;20498;-83
2023/02/01 01:03:46;;;;;;;9.70;5.03;;;102.70;2227.20;;;;;;5094806;28;20426;-81
2023/02/01 01:06:16;;;;;;;14.18;6.43;;;102.60;2227.20;;;;;;5095314;28;20031;-81
2023/02/01 01:08:42;;;;;;;12.82;6.25;;;102.70;2227.20;;;;;;5094515;28;20149;-82
2023/02/01 01:11:14;;;;;;;13.70;7.90;;;102.70;2227.20;;;;;;5094081;28;20051;-80
2023/02/01 01:13:41;;;;;;;15.02;6.57;;;102.80;2227.20;;;;;;5094198;28;20492;-82
2023/02/01 01:16:09;;;;;;;17.50;8.25;;;102.80;2227.20;;;;;;5094622;28;20024;-83
2023/02/01 01:18:35;;;;;;;13.98;6.93;;;102.80;2227.20;;;;;;5094197;28;20024;-81
2023/02/01 01:21:03;;;;;;;17.90;7.95;;;102.80;2227.20;;;;;;5094298;28;20021;-82
2023/02/01 01:23:29;;;;;;;14.75;7.88;;;102.80;2227.20;;;;;;5094628;28;20032;-84
2023/02/01 01:25:55;;;;;;;15.32;6.85;;;102.80;2227.20;;;;;;5094127;28;20028;-85
2023/02/01 01:28:21;;;;;;;13.73;8.13;;;102.70;2227.20;;;;;;5094492;28;20024;-84
2023/02/01 01:30:47;;;;;;;16.15;8.27;;;102.80;2227.20;;;;;;5093867;28;20024;-82
2023/02/01 01:33:13;;;;;;;12.45;6.50;;;102.80;2227.20;;;;;;5093635;28;20032;-82
2023/02/01 01:35:38;;;;;;;17.85;8.65;;;102.80;2227.20;;;;;;5094007;28;20047;-83
2023/02/01 01:38:04;;;;;;;17.25;7.88;;;102.80;2227.20;;;;;;5093829;28;20114;-81
2023/02/01 01:40:31;;;;;;;17.45;9.13;;;102.80;2227.20;;;;;;5093495;28;20452;-85
2023/02/01 01:42:57;;;;;;;13.70;7.72;;;102.80;2227.20;;;;;;5093697;28;20119;-82
2023/02/01 01:45:34;;;;;;;15.85;7.82;;;102.80;2227.20;;;;;;5093753;28;20024;-82
2023/02/01 01:48:17;;;;;;;12.85;6.57;;;102.90;2227.20;;;;;;5093555;28;20115;-84
2023/02/01 01:50:48;;;;;;;20.35;10.00;;;102.90;2227.20;;;;;;5093478;28;20028;-82
2023/02/01 01:53:19;;;;;;;14.68;7.10;;;102.90;2227.20;;;;;;5093616;28;20154;-82
2023/02/01 01:55:47;;;;;;;17.50;8.57;;;102.90;2227.20;;;;;;5093389;28;20024;-81
2023/02/01 01:58:21;;;;;;;16.00;6.93;;;102.90;2227.20;;;;;;5093097;28;20380;-83
2023/02/01 02:00:47;;;;;;;17.90;9.45;;;102.80;2227.20;;;;;;5091908;28;20028;-82
2023/02/01 02:03:30;;;;;;;18.95;9.88;;;102.90;2227.20;;;;;;5092899;28;20032;-82
2023/02/01 02:05:58;;;;;;;12.27;7.32;;;102.90;2227.20;;;;;;5092539;28;20024;-83
2023/02/01 02:08:26;;;;;;;14.90;7.63;;;102.90;2227.20;;;;;;5083036;28;20124;-84
2023/02/01 02:11:01;;;;;;;17.33;7.47;;;102.90;2227.20;;;;;;5072578;28;20135;-82
2023/02/01 02:13:38;;;;;;;11.27;5.90;;;102.90;2227.20;;;;;;5073575;28;20625;-83
2023/02/01 02:16:16;;;;;;;12.10;5.82;;;102.90;2227.20;;;;;;5073859;28;20491;-84
2023/02/01 02:19:08;;;;;;;10.63;5.90;;;102.90;2227.20;;;;;;5073039;28;20032;-86
2023/02/01 02:21:45;;;;;;;14.18;6.82;;;102.90;2227.20;;;;;;5049724;28;20033;-83
2023/02/01 02:24:29;;;;;;;15.25;7.45;;;102.90;2227.20;;;;;;5073010;28;20024;-85
2023/02/01 02:27:34;;;;;;;15.73;7.50;;;102.90;2227.20;;;;;;5073000;28;20119;-85
2023/02/01 02:30:34;;;;;;;14.48;6.90;;;103.00;2227.20;;;;;;5019725;28;20495;-85
2023/02/01 02:32:59;;;;;;;13.63;6.32;;;102.90;2227.20;;;;;;5072743;28;20029;-84
2023/02/01 02:35:53;;;;;;;12.70;5.15;;;102.90;2227.20;;;;;;5072660;28;20042;-85
2023/02/01 02:38:47;;;;;;;9.25;5.07;;;102.90;2227.20;;;;;;5072676;28;20024;-85
2023/02/01 02:47:53;;;;;;;8.23;4.35;;;103.00;2227.20;;;;;;5073747;28;20040;-85
2023/02/01 03:04:43;;;;;;;26.48;12.30;;;103.00;2227.20;;;;;;5073518;28;20031;-84
2023/02/01 03:07:44;;;;;;;22.90;11.68;;;103.00;2227.20;;;;;;5072460;28;20380;-81
2023/02/01 03:10:43;;;;;;;19.70;10.05;;;103.00;2227.20;;;;;;5059700;28;20059;-83
2023/02/01 03:13:36;;;;;;;38.85;17.55;;;103.00;2227.20;;;;;;5077241;28;20037;-82
2023/02/01 03:16:22;;;;;;;23.05;12.15;;;103.00;2227.20;;;;;;5077441;28;20032;-84
2023/02/01 03:19:17;;;;;;;15.43;8.90;;;102.90;2227.20;;;;;;5075837;28;20029;-82
2023/02/01 03:21:52;;;;;;;19.45;10.40;;;102.90;2227.20;;;;;;5075428;28;20033;-85
2023/02/01 03:24:35;;;;;;;30.48;12.82;;;102.90;2227.20;;;;;;5076063;28;20031;-84
2023/02/01 03:27:17;;;;;;;30.83;13.75;;;102.90;2227.20;;;;;;5076177;28;20453;-85
2023/02/01 03:29:51;;;;;;;34.60;14.30;;;102.80;2227.20;;;;;;5076534;28;20100;-86
2023/02/01 03:32:18;;;;;;;23.10;8.85;;;102.90;2227.20;;;;;;5075483;28;20037;-84
2023/02/01 03:34:44;;;;;;;26.75;10.93;;;102.80;2227.20;;;;;;5075706;28;20028;-85
2023/02/01 03:37:16;;;;;;;21.88;9.35;;;102.80;2227.20;;;;;;5075527;28;20029;-84
2023/02/01 03:39:56;;;;;;;14.57;6.72;;;102.80;2227.20;;;;;;5075618;28;20032;-83
2023/02/01 03:42:34;;;;;;;11.15;5.13;;;102.80;2227.20;;;;;;5075847;28;20051;-83
2023/02/01 03:45:12;;;;;;;12.93;5.72;;;102.70;2227.20;;;;;;5075685;28;20479;-83
2023/02/01 03:47:41;;;;;;;39.83;21.23;;;102.60;2227.20;;;;;;5075210;28;20036;-83
2023/02/01 03:50:11;;;;;;;53.72;28.98;;;102.60;2227.20;;;;;;5077027;28;20069;-86
2023/02/01 03:52:42;;;;;;;42.83;22.73;;;102.50;2227.20;;;;;;5082559;28;20039;-83
2023/02/01 03:55:10;;;;;;;58.08;30.83;;;102.40;2227.20;;;;;;5095874;28;20115;-85
2023/02/01 03:57:43;;;;;;;49.95;26.80;;;102.40;2227.20;;;;;;5095093;28;20028;-85
2023/02/01 04:00:24;;;;;;;35.42;19.45;;;102.40;2227.20;;;;;;5095610;28;20024;-83
2023/02/01 04:02:51;;;;;;;34.97;20.50;;;102.40;2227.20;;;;;;5095563;28;20146;-84
2023/02/01 04:05:17;;;;;;;33.15;18.40;;;102.40;2227.20;;;;;;5096806;28;20020;-85
2023/02/01 04:07:43;;;;;;;34.13;19.05;;;102.40;2227.20;;;;;;5095434;28;20483;-84
2023/02/01 04:10:10;;;;;;;29.40;16.40;;;102.40;2227.20;;;;;;5095622;28;20475;-85
2023/02/01 04:12:36;;;;;;;19.80;13.73;;;102.40;2227.20;;;;;;5096143;28;20044;-83
2023/02/01 04:15:03;;;;;;;28.23;13.57;;;77.70;2227.20;;;;;;5095735;28;20031;-83
2023/02/01 04:17:29;;;;;;;20.35;12.68;;;77.70;2227.20;;;;;;5094513;28;20028;-85
2023/02/01 04:19:54;;;;;;;23.08;15.38;;;77.60;2227.20;;;;;;5094695;28;20024;-84
2023/02/01 04:22:20;;;;;;;17.77;12.88;;;77.40;2227.20;;;;;;5094355;28;20038;-84
2023/02/01 04:24:46;;;;;;;19.75;13.18;;;77.40;2227.20;;;;;;5095049;28;20398;-84
2023/02/01 04:27:12;;;;;;;16.65;11.68;;;77.30;2227.20;;;;;;5096461;28;20027;-84
2023/02/01 04:29:38;;;;;;;20.98;12.05;;;77.30;2227.20;;;;;;5094803;28;20070;-84
2023/02/01 04:32:04;;;;;;;19.73;14.38;;;77.30;2227.20;;;;;;5095008;28;20476;-85
2023/02/01 04:34:30;;;;;;;19.52;12.48;;;77.40;2227.20;;;;;;5094938;28;20184;-86
2023/02/01 04:36:56;;;;;;;22.88;14.18;;;77.40;2227.20;;;;;;5094766;28;20519;-85
2023/02/01 04:39:22;;;;;;;22.75;14.02;;;77.40;2227.20;;;;;;5096112;28;20024;-84
2023/02/01 04:41:47;;;;;;;20.73;13.95;;;77.40;2227.20;;;;;;5094709;28;20082;-83
2023/02/01 04:44:15;;;;;;;21.33;13.90;;;77.40;2227.20;;;;;;5094958;28;20373;-84
2023/02/01 04:46:41;;;;;;;33.95;27.15;;;77.50;2227.20;;;;;;5096112;28;20034;-84
2023/02/01 04:49:09;;;;;;;49.95;35.88;;;77.50;2227.20;;;;;;5094689;28;20122;-85
2023/02/01 04:51:35;;;;;;;37.10;24.70;;;77.20;2227.20;;;;;;5095837;28;20104;-84
2023/02/01 04:54:00;;;;;;;29.35;19.45;;;77.20;2227.20;;;;;;5096062;28;20052;-83
2023/02/01 04:56:26;;;;;;;27.17;17.60;;;77.10;2227.20;;;;;;5094527;28;20060;-84
2023/02/01 04:58:52;;;;;;;23.73;16.27;;;77.10;2227.20;;;;;;5094523;28;20024;-85
2023/02/01 05:01:18;;;;;;;21.60;14.52;;;77.20;2227.20;;;;;;5094590;28;20115;-85
2023/02/01 05:03:44;;;;;;;19.05;13.65;;;77.20;2227.20;;;;;;5095796;28;20024;-86
2023/02/01 05:06:09;;;;;;;20.77;15.15;;;77.20;2227.20;;;;;;5094424;28;20379;-83
2023/02/01 05:08:35;;;;;;;29.67;20.13;;;77.20;2227.20;;;;;;5094346;28;20427;-85
2023/02/01 05:11:03;;;;;;;28.00;17.27;;;77.20;2227.20;;;;;;5093923;28;20040;-83
2023/02/01 05:13:48;;;;;;;21.98;15.38;;;77.00;2227.20;;;;;;5093549;28;20064;-85
2023/02/01 05:16:15;;;;;;;18.80;12.63;;;77.10;2227.20;;;;;;5095955;28;20108;-84
2023/02/01 05:18:41;;;;;;;19.13;12.55;;;77.00;2227.20;;;;;;5094396;28;20064;-84
2023/02/01 05:21:07;;;;;;;20.33;12.77;;;77.20;2227.20;;;;;;5094590;28;20092;-85
2023/02/01 05:24:09;;;;;;;22.45;14.90;;;77.30;2227.20;;;;;;5094032;28;20032;-84
2023/02/01 05:26:19;;;;;;;29.95;20.33;;;77.20;2227.20;;;;;;5094896;28;20032;-85
2023/02/01 05:28:44;;;;;;;51.95;31.88;;;77.30;2227.20;;;;;;5094033;28;20418;-83
2023/02/01 05:31:11;;;;;;;53.45;32.67;;;77.30;2227.20;;;;;;5076609;28;20112;-83
2023/02/01 05:33:37;;;;;;;44.08;28.52;;;77.40;2227.20;;;;;;5073078;28;20033;-81
2023/02/01 05:36:03;;;;;;;45.83;31.02;;;77.40;2227.20;;;;;;5075407;28;20020;-84
2023/02/01 05:38:32;;;;;;;46.85;34.60;;;77.40;2227.20;;;;;;5074151;28;20024;-88
2023/02/01 05:40:57;;;;;;;52.00;32.92;;;77.40;2227.20;;;;;;5073723;28;20471;-85
2023/02/01 05:43:23;;;;;;;67.13;40.83;;;77.40;2227.20;;;;;;5073519;28;20028;-83
2023/02/01 05:45:51;;;;;;;89.70;56.08;;;77.40;2227.20;;;;;;5073424;28;20025;-85
2023/02/01 05:48:16;;;;;;;90.70;57.20;;;77.40;2227.20;;;;;;5073605;28;20036;-83
2023/02/01 05:50:43;;;;;;;88.93;56.88;;;77.40;2227.20;;;;;;5074739;28;20399;-83
2023/02/01 05:53:09;;;;;;;103.55;63.38;;;102.50;2227.20;;;;;;5085137;28;20391;-86
2023/02/01 05:55:35;;;;;;;107.32;67.15;;;77.40;2227.20;;;;;;5094824;28;20024;-84
2023/02/01 05:58:01;;;;;;;108.03;67.47;;;77.50;2227.20;;;;;;5092854;28;20085;-84
2023/02/01 06:00:27;;;;;;;122.07;76.32;;;77.40;2227.20;;;;;;5093325;28;20023;-84
2023/02/01 06:02:52;;;;;;;125.47;73.95;;;77.40;2227.20;;;;;;5094602;28;20028;-82
2023/02/01 06:05:18;;;;;;;112.97;69.25;;;77.40;2227.20;;;;;;5093147;28;20035;-83
2023/02/01 06:07:44;;;;;;;119.05;73.40;;;77.40;2227.20;;;;;;5092806;28;20027;-83
2023/02/01 06:10:10;;;;;;;120.95;70.28;;;77.40;2227.20;;;;;;5092987;28;20115;-85
2023/02/01 06:12:36;;;;;;;135.38;81.22;;;77.40;2227.20;;;;;;5093740;28;20047;-83
2023/02/01 06:15:02;;;;;;;110.20;66.72;;;77.30;2227.20;;;;;;5093261;28;20058;-84
2023/02/01 06:17:28;;;;;;;79.72;49.75;;;77.20;2227.20;;;;;;5094241;28;20410;-85
2023/02/01 06:19:53;;;;;;;78.38;49.22;;;77.10;2227.20;;;;;;5093816;28;20100;-84
2023/02/01 06:22:19;;;;;;;75.47;46.05;;;77.10;2227.20;;;;;;5092959;28;20493;-85
2023/02/01 06:24:45;;;;;;;76.68;50.22;;;77.10;2227.20;;;;;;5093186;28;20024;-84
2023/02/01 06:27:11;;;;;;;79.00;50.22;;;77.00;2227.20;;;;;;5092843;28;20028;-84
2023/02/01 06:29:37;;;;;;;86.10;56.28;;;77.00;2227.20;;;;;;5093384;28;20028;-83
2023/02/01 06:32:03;;;;;;;100.07;62.03;;;77.10;2227.20;;;;;;5093146;28;20032;-84
2023/02/01 06:34:29;;;;;;;103.65;63.95;;;77.20;2227.20;;;;;;5094445;28;20020;-84
2023/02/01 06:36:54;;;;;;;123.45;69.65;;;77.30;2227.20;;;;;;5093187;28;20036;-84
2023/02/01 06:39:21;;;;;;;123.63;72.75;;;77.20;2227.20;;;;;;5093100;28;20038;-82
2023/02/01 06:41:47;;;;;;;120.72;70.70;;;77.00;2227.20;;;;;;5092999;28;20049;-81
2023/02/01 06:44:14;;;;;;;109.68;65.82;;;77.30;2227.20;;;;;;5093538;28;20024;-84
2023/02/01 06:46:39;;;;;;;70.55;43.80;;;77.30;2227.20;;;;;;5097093;28;20032;-84
2023/02/01 06:49:05;;;;;;;97.38;67.75;;;77.30;2227.20;;;;;;5098166;28;20046;-85
2023/02/01 06:51:31;;;;;;;60.60;42.08;;;77.20;2227.20;;;;;;5097280;28;20077;-85
2023/02/01 06:53:57;;;;;;;88.93;63.65;;;77.20;2227.20;;;;;;5100403;28;20036;-84
2023/02/01 06:56:23;;;;;;;88.25;58.20;;;77.20;2227.20;;;;;;5105632;28;20028;-86
2023/02/01 06:58:49;;;;;;;78.78;51.83;;;77.30;2227.20;;;;;;5121883;28;20064;-84
2023/02/01 07:01:15;;;;;;;76.95;47.65;;;77.30;2227.20;;;;;;5119932;28;20028;-82
2023/02/01 07:03:42;;;;;;;74.60;47.05;;;77.20;2227.20;;;;;;5118448;28;20019;-80
2023/02/01 07:06:08;;;;;;;72.57;48.25;;;77.30;2227.20;;;;;;5111698;28;20024;-79
2023/02/01 07:08:36;;;;;;;77.97;47.60;;;77.50;2227.20;;;;;;5105263;28;20051;-80
2023/02/01 07:11:07;;;;;;;81.75;49.60;;;77.40;2227.20;;;;;;5102009;28;20052;-85
2023/02/01 07:13:34;;;;;;;66.68;43.97;;;77.60;2227.20;;;;;;5100329;28;20064;-84
2023/02/01 07:16:05;;;;;;;68.32;44.50;;;77.70;2227.20;;;;;;5097057;28;20035;-82
2023/02/01 07:18:32;;;;;;;67.35;43.90;;;77.70;2227.20;;;;;;5096918;28;20028;-84
2023/02/01 07:20:58;;;;;;;70.75;43.00;;;77.70;2227.20;;;;;;5096556;28;20081;-83
2023/02/01 07:23:25;;;;;;;148.07;85.15;;;102.40;2227.20;;;;;;5096340;28;20118;-83
2023/02/01 07:25:55;;;;;;;91.07;58.72;;;102.40;2227.20;;;;;;5096847;28;20024;-84
2023/02/01 07:28:21;;;;;;;77.22;49.80;;;102.40;2227.20;;;;;;5096489;28;20059;-83
2023/02/01 07:30:56;;;;;;;65.40;41.00;;;77.70;2227.20;;;;;;5095765;28;20020;-83
2023/02/01 07:33:24;;;;;;;78.80;50.40;;;77.70;2227.20;;;;;;5097372;28;20047;-85
2023/02/01 07:35:50;;;;;;;84.38;55.50;;;77.70;2227.20;;;;;;5097082;28;20024;-82
2023/02/01 07:38:16;;;;;;;88.85;62.65;;;77.70;2227.20;;;;;;5095574;28;20024;-84
2023/02/01 07:40:42;;;;;;;88.90;59.97;;;77.70;2227.20;;;;;;5097048;28;20024;-82
2023/02/01 07:43:09;;;;;;;76.00;50.25;;;102.50;2227.20;;;;;;5097472;28;20042;-83
2023/02/01 07:45:35;;;;;;;84.13;53.72;;;102.50;2227.20;;;;;;5095715;28;20584;-86
2023/02/01 07:48:02;;;;;;;80.85;52.25;;;102.50;2227.20;;;;;;5095830;28;20024;-81
2023/02/01 07:50:28;;;;;;;78.85;51.17;;;102.50;2227.20;;;;;;5095940;28;20024;-83
2023/02/01 07:52:54;;;;;;;79.30;51.20;;;102.40;2227.20;;;;;;5095468;28;20055;-83
2023/02/01 07:55:20;;;;;;;57.08;36.53;;;102.40;2227.20;;;;;;5097318;28;20451;-84
2023/02/01 07:57:46;;;;;;;51.60;36.88;;;102.50;2227.20;;;;;;5095773;28;20020;-84
2023/02/01 08:02:58;;;;;;;145.65;68.82;;;102.40;2227.20;;;;;;5096715;28;20058;-83
2023/02/01 08:05:24;;;;;;;106.45;56.97;;;102.80;2227.20;;;;;;5095282;28;20467;-85
2023/02/01 08:07:50;;;;;;;67.68;41.20;;;102.50;2227.20;;;;;;5096579;28;20474;-84
2023/02/01 08:10:18;;;;;;;52.28;32.58;;;102.50;2227.20;;;;;;5095065;28;20113;-84
2023/02/01 08:12:47;;;;;;;35.92;23.20;;;102.50;2227.20;;;;;;5095071;28;20035;-86
2023/02/01 08:15:16;;;;;;;28.90;17.45;;;102.60;2227.20;;;;;;5095279;28;20059;-84
2023/02/01 08:17:49;;;;;;;27.85;17.33;;;102.60;2227.20;;;;;;5095149;28;20024;-86
2023/02/01 08:20:14;;;;;;;;;;;102.70;2227.20;;;;;;5095420;28;20028;-83
2023/02/01 08:22:40;;;;;;;22.58;12.48;;;102.80;2227.20;;;;;;5129554;27;19904;-84
2023/02/01 08:25:06;;;;;;;17.85;13.07;;;102.80;2227.20;;;;;;5095294;28;20031;-83
2023/02/01 08:27:33;;;;;;;15.73;11.23;;;102.80;2227.20;;;;;;5096253;28;20024;-82
2023/02/01 08:29:59;;;;;;;19.42;11.35;;;102.90;2227.20;;;;;;5093624;28;20016;-84
2023/02/01 08:32:26;;;;;;;15.70;11.77;;;102.80;2227.20;;;;;;5094321;28;20042;-81
2023/02/01 08:34:52;;;;;;;21.02;13.30;;;102.90;2227.20;;;;;;5095183;28;20024;-85
2023/02/01 08:37:18;;;;;;;24.75;17.33;;;102.80;2227.20;;;;;;5096314;28;20034;-86
2023/02/01 08:39:44;;;;;;;42.47;29.38;;;102.80;2227.20;;;;;;5095861;28;20055;-84
2023/02/01 08:44:55;;;;;;;62.72;33.60;;;103.00;2227.20;;;;;;5095994;28;20548;-84
2023/02/01 08:47:21;;;;;;;50.75;25.70;;;103.10;2227.20;;;;;;5094470;28;20024;-84
2023/02/01 08:49:46;;;;;;;33.47;22.95;;;103.10;2227.20;;;;;;5096021;28;20058;-83
2023/02/01 08:52:12;;;;;;;34.97;22.80;;;103.00;2227.20;;;;;;5094929;28;20036;-82
2023/02/01 08:54:40;;;;;;;32.85;20.55;;;103.20;2227.20;;;;;;5094478;28;20032;-84
2023/02/01 08:57:05;;;;;;;33.30;23.20;;;103.20;2227.20;;;;;;5094634;28;20028;-83
2023/02/01 08:59:31;;;;;;;27.92;19.27;;;103.30;2227.20;;;;;;5094652;28;20054;-85
2023/02/01 09:01:57;;;;;;;35.90;24.30;;;128.00;2252.80;;;;;;5092761;28;20026;-82
2023/02/01 09:04:23;;;;;;;43.13;30.92;;;128.10;2252.80;;;;;;5093589;28;20115;-83
2023/02/01 09:06:48;;;;;;;30.33;21.20;;;128.20;2252.80;;;;;;5093351;28;20028;-80
2023/02/01 09:09:14;;;;;;;38.85;26.30;;;128.10;2252.80;;;;;;5093556;28;20039;-83
2023/02/01 09:11:40;;;;;;;69.25;44.67;;;128.20;2252.80;;;;;;5093627;28;20073;-82
2023/02/01 09:14:06;;;;;;;52.30;35.90;;;128.20;2252.80;;;;;;5095356;28;20036;-83
2023/02/01 09:16:32;;;;;;;42.80;29.60;;;128.40;2252.80;;;;;;5093598;28;20028;-84
2023/02/01 09:18:57;;;;;;;42.10;26.73;;;128.40;2252.80;;;;;;5094896;28;20024;-79
2023/02/01 09:21:23;;;;;;;31.40;22.90;;;128.40;2252.80;;;;;;5094736;28;20579;-78
2023/02/01 09:23:51;;;;;;;30.20;21.13;;;128.40;2252.80;;;;;;5093101;28;20034;-77
2023/02/01 09:26:17;;;;;;;37.55;25.65;;;128.40;2252.80;;;;;;5093393;28;20024;-77
2023/02/01 09:28:43;;;;;;;30.65;22.73;;;128.60;2252.80;;;;;;5093264;28;20548;-80
2023/02/01 09:31:09;;;;;;;65.00;41.83;;;128.60;2252.80;;;;;;5093332;28;20051;-76
2023/02/01 09:33:35;;;;;;;41.40;27.60;;;128.60;2252.80;;;;;;5093217;28;20403;-80
2023/02/01 09:36:04;;;;;;;25.65;17.48;;;128.60;2252.80;;;;;;5092928;28;20028;-77
2023/02/01 09:38:31;;;;;;;24.55;17.92;;;128.70;2252.80;;;;;;5093074;28;20028;-80
2023/02/01 09:40:58;;;;;;;23.85;15.10;;;128.70;2252.80;;;;;;5092802;28;20027;-80
2023/02/01 09:43:56;;;;;;;21.17;12.88;;;128.80;2252.80;;;;;;5092983;28;20020;-78
2023/02/01 09:46:24;;;;;;;22.45;13.02;;;128.90;2252.80;;;;;;5091342;28;20403;-80
2023/02/01 09:48:54;;;;;;;22.63;14.00;;;153.70;2252.80;;;;;;5093201;28;20118;-79
2023/02/01 09:51:27;;;;;;;22.92;15.23;;;153.80;2252.80;;;;;;5093419;28;20028;-82
2023/02/01 09:54:19;;;;;;;26.42;15.88;;;153.90;2252.80;;;;;;5092463;28;20032;-81
2023/02/01 09:56:53;;;;;;;26.00;16.25;;;154.00;2252.80;;;;;;5092599;28;20043;-80
2023/02/01 09:59:25;;;;;;;30.85;20.92;;;154.10;2252.80;;;;;;5092976;28;20028;-80
2023/02/01 10:01:51;;;;;;;25.60;18.20;;;154.20;2252.80;;;;;;5093026;28;20030;-79
2023/02/01 10:04:18;;;;;;;32.90;20.00;;;154.40;2252.80;;;;;;5092935;28;20119;-78
2023/02/01 10:07:24;;;;;;;28.35;17.38;;;154.50;2252.80;;;;;;5092672;28;20024;-79
2023/02/01 10:10:09;;;;;;;28.75;19.50;;;179.30;2252.80;;;;;;5011703;28;20033;-79
2023/02/01 10:12:38;;;;;;;28.02;19.08;;;154.50;2252.80;;;;;;5087904;28;20048;-80
2023/02/01 10:15:18;;;;;;;25.15;17.58;;;179.20;2252.80;;;;;;5093058;28;20059;-82
2023/02/01 10:18:15;;;;;;;22.55;13.73;;;179.50;2252.80;;;;;;5092598;28;20055;-78
2023/02/01 10:20:57;;;;;;;22.08;14.70;;;179.70;2252.80;;;;;;5092379;28;20028;-79
2023/02/01 10:23:47;;;;;;;21.95;14.38;;;179.60;2252.80;;;;;;5092709;28;20032;-78
2023/02/01 10:26:22;;;;;;;21.83;13.30;;;179.60;2252.80;;;;;;5093817;28;20028;-80
2023/02/01 10:29:03;;;;;;;26.05;17.80;;;179.60;2252.80;;;;;;5092683;28;20535;-81
2023/02/01 10:31:31;;;;;;;32.80;22.55;;;179.50;2252.80;;;;;;5092652;28;20502;-79
2023/02/01 10:33:59;;;;;;;36.22;21.40;;;179.50;2252.80;;;;;;5092498;28;20028;-79
2023/02/01 10:36:34;;;;;;;39.22;23.17;;;179.50;2252.80;;;;;;5092553;28;20028;-78
2023/02/01 10:39:01;;;;;;;32.75;19.70;;;179.70;2252.80;;;;;;5093869;28;20032;-80
2023/02/01 10:41:33;;;;;;;35.47;22.40;;;179.70;2252.80;;;;;;5093495;28;20052;-78
2023/02/01 10:44:03;;;;;;;45.50;26.67;;;179.80;2252.80;;;;;;5092580;28;20356;-79
2023/02/01 10:46:30;;;;;;;31.73;19.30;;;179.90;2252.80;;;;;;5093556;28;20042;-79
2023/02/01 10:49:00;;;;;;;37.47;23.02;;;180.00;2252.80;;;;;;5094422;28;20051;-78
2023/02/01 10:51:43;;;;;;;37.83;19.95;;;;;;;;;;5092212;28;20028;-79
2023/02/01 10:54:16;;;;;;;49.95;26.25;;;;;;;;;;5093457;28;20073;-79
2023/02/01 10:56:44;;;;;;;32.45;19.00;;;;;;;;;;5092400;28;20020;-78
2023/02/01 10:59:20;;;;;;;29.73;19.85;;;205.00;2252.80;;;;;;5092421;28;20032;-80
2023/02/01 11:01:48;;;;;;;31.70;20.98;;;204.90;2252.80;;;;;;5091834;28;20028;-78
2023/02/01 11:04:20;;;;;;;28.77;19.17;;;205.00;2252.80;;;;;;5092513;28;20020;-79
2023/02/01 11:07:14;;;;;;;25.20;16.52;;;205.10;2252.80;;;;;;5093383;28;20041;-80
2023/02/01 11:09:40;;;;;;;25.42;16.58;;;205.30;2252.80;;;;;;5063548;28;20040;-80
2023/02/01 11:12:34;;;;;;;29.80;20.13;;;205.40;2252.80;;;;;;5091881;28;20131;-79
2023/02/01 11:15:13;;;;;;;16.60;10.77;;;205.70;2252.80;;;;;;5092134;28;20024;-79
2023/02/01 11:17:48;;;;;;;11.85;8.32;;;230.50;2252.80;;;;;;5093563;28;20024;-82
2023/02/01 11:20:40;;;;;;;23.02;14.10;;;230.40;2252.80;;;;;;5093125;28;20024;-85
2023/02/01 11:23:15;;;;;;;26.80;18.00;;;230.40;2252.80;;;;;;5093455;28;20036;-86
2023/02/01 11:25:50;;;;;;;21.27;13.95;;;230.60;2252.80;;;;;;5093426;28;20118;-84
2023/02/01 11:28:17;;;;;;;29.40;18.73;;;230.70;2252.80;;;;;;5093523;28;20416;-85
2023/02/01 11:30:45;;;;;;;38.58;27.20;;;230.70;2252.80;;;;;;5093295;28;20024;-84
2023/02/01 11:33:18;;;;;;;35.67;23.85;;;230.90;2252.80;;;;;;5096486;28;20055;-84
2023/02/01 11:35:46;;;;;;;29.63;20.13;;;230.90;2252.80;;;;;;5096307;28;20024;-85
2023/02/01 11:38:25;;;;;;;26.23;18.52;;;231.20;2252.80;;;;;;5096516;28;20030;-83
2023/02/01 11:40:50;;;;;;;29.13;18.70;;;256.10;2252.80;;;;;;5097951;28;20028;-84
2023/02/01 11:43:28;;;;;;;28.70;17.92;;;256.30;2252.80;;;;;;5095697;28;20032;-82
2023/02/01 11:46:02;;;;;;;31.10;19.23;;;256.50;2252.80;;;;;;5096114;28;20020;-82
2023/02/01 11:48:33;;;;;;;28.60;18.70;;;256.70;2252.80;;;;;;5096172;28;20028;-85
2023/02/01 11:51:25;;;;;;;20.88;13.05;;;281.70;2278.40;;;;;;5095932;28;20024;-84
2023/02/01 11:53:54;;;;;;;23.35;17.70;;;282.30;2278.40;;;;;;5095871;28;20035;-82
2023/02/01 11:56:41;;;;;;;20.65;13.15;;;282.40;2278.40;;;;;;5095665;28;20068;-84
2023/02/01 11:59:26;;;;;;;20.42;12.48;;;282.40;2278.40;;;;;;5095584;28;20024;-85
2023/02/01 12:02:21;;;;;;;20.70;12.82;;;307.30;2304.00;;;;;;5095872;28;20051;-84
2023/02/01 12:04:53;;;;;;;21.40;14.23;;;307.40;2304.00;;;;;;5095271;28;20031;-85
2023/02/01 12:07:29;;;;;;;19.10;13.52;;;307.50;2304.00;;;;;;5095606;28;20082;-84
2023/02/01 12:10:04;;;;;;;82.28;49.17;;;307.60;2304.00;;;;;;5095323;28;20028;-85
2023/02/01 12:12:52;;;;;;;18.30;13.32;;;308.00;2304.00;;;;;;5095021;28;20081;-84
2023/02/01 12:15:54;;;;;;;13.05;8.07;;;308.00;2278.40;;;;;;5095218;28;20024;-85
2023/02/01 12:19:02;;;;;;;8.82;6.57;;;333.00;2176.00;;;;;;5078027;28;20463;-83
2023/02/01 12:21:46;;;;;;;21.60;14.38;;;332.80;2099.20;;;;;;5081760;28;20028;-84
2023/02/01 12:24:33;;;;;;;21.15;12.60;;;333.20;2252.80;;;;;;5095237;28;20351;-84
2023/02/01 12:27:20;;;;;;;16.58;11.45;;;333.30;2176.00;;;;;;5095155;28;20028;-83
2023/02/01 12:30:00;;;;;;;17.77;10.80;;;333.60;2329.60;;;;;;5095122;28;20158;-84
2023/02/01 12:32:59;;;;;;;9.40;5.57;;;358.40;2150.40;;;;;;5096226;28;20028;-84
2023/02/01 12:35:52;;;;;;;11.57;5.65;;;333.50;1971.20;;;;;;5094564;28;20024;-85
2023/02/01 12:38:36;;;;;;;21.40;10.60;;;333.60;1996.80;;;;;;5095001;28;20059;-84
2023/02/01 12:41:45;;;;;;;45.33;30.38;;;358.40;2022.40;;;;;;5094918;28;20048;-83
2023/02/01 12:44:29;;;;;;;18.85;11.63;;;358.60;2073.60;;;;;;5094824;28;20376;-84
2023/02/01 12:47:18;;;;;;;12.00;8.27;;;358.60;2048.00;;;;;;5095765;28;20024;-83
2023/02/01 12:50:16;;;;;;;8.10;4.97;;;333.60;1996.80;;;;;;5095018;28;20077;-83
2023/02/01 12:52:50;;;;;;;9.57;5.47;;;333.70;2022.40;;;;;;5093456;28;20036;-82